sensor_id;sensor_type;location;lat;lon;timestamp;P1;durP1;ratioP1;P2;durP2;ratioP2
71172;SDS011;58875;51.996;4.504;2024-01-27T00:01:44;9.79;;;6.60;;
71172;SDS011;58875;51.996;4.504;2024-01-27T00:04:10;8.89;;;6.04;;
71172;SDS011;58875;51.996;4.504;2024-01-27T00:06:35;9.86;;;6.68;;
71172;SDS011;58875;51.996;4.504;2024-01-27T00:09:01;9.01;;;6.10;;
71172;SDS011;58875;51.996;4.504;2024-01-27T00:11:27;8.98;;;6.08;;
71172;SDS011;58875;51.996;4.504;2024-01-27T00:13:52;8.95;;;6.01;;
71172;SDS011;58875;51.996;4.504;2024-01-27T00:16:20;9.27;;;6.27;;
71172;SDS011;58875;51.996;4.504;2024-01-27T00:18:46;9.47;;;6.33;;
71172;SDS011;58875;51.996;4.504;2024-01-27T00:21:12;9.42;;;6.20;;
71172;SDS011;58875;51.996;4.504;2024-01-27T00:23:37;9.62;;;6.35;;
71172;SDS011;58875;51.996;4.504;2024-01-27T00:26:03;10.70;;;7.16;;
71172;SDS011;58875;51.996;4.504;2024-01-27T00:28:29;9.72;;;6.53;;
71172;SDS011;58875;51.996;4.504;2024-01-27T00:30:55;9.15;;;6.11;;
71172;SDS011;58875;51.996;4.504;2024-01-27T00:33:21;9.14;;;6.10;;
71172;SDS011;58875;51.996;4.504;2024-01-27T00:35:49;9.57;;;6.43;;
71172;SDS011;58875;51.996;4.504;2024-01-27T00:38:14;8.44;;;5.69;;
71172;SDS011;58875;51.996;4.504;2024-01-27T00:40:40;8.39;;;5.68;;
71172;SDS011;58875;51.996;4.504;2024-01-27T00:43:06;9.44;;;6.29;;
71172;SDS011;58875;51.996;4.504;2024-01-27T00:45:31;9.58;;;6.34;;
71172;SDS011;58875;51.996;4.504;2024-01-27T00:47:58;8.90;;;5.94;;
71172;SDS011;58875;51.996;4.504;2024-01-27T00:50:24;8.69;;;5.89;;
71172;SDS011;58875;51.996;4.504;2024-01-27T00:52:52;8.11;;;5.61;;
71172;SDS011;58875;51.996;4.504;2024-01-27T00:55:21;7.92;;;5.45;;
71172;SDS011;58875;51.996;4.504;2024-01-27T00:57:46;8.39;;;5.67;;
71172;SDS011;58875;51.996;4.504;2024-01-27T01:00:12;8.73;;;5.87;;
71172;SDS011;58875;51.996;4.504;2024-01-27T01:02:38;8.87;;;6.00;;
71172;SDS011;58875;51.996;4.504;2024-01-27T01:05:06;8.15;;;5.45;;
71172;SDS011;58875;51.996;4.504;2024-01-27T01:07:32;9.00;;;5.93;;
71172;SDS011;58875;51.996;4.504;2024-01-27T01:10:00;8.34;;;5.51;;
71172;SDS011;58875;51.996;4.504;2024-01-27T01:12:26;8.96;;;5.86;;
71172;SDS011;58875;51.996;4.504;2024-01-27T01:14:52;8.93;;;5.85;;
71172;SDS011;58875;51.996;4.504;2024-01-27T01:17:21;9.15;;;5.95;;
71172;SDS011;58875;51.996;4.504;2024-01-27T01:19:47;8.11;;;5.30;;
71172;SDS011;58875;51.996;4.504;2024-01-27T01:22:12;8.16;;;5.41;;
71172;SDS011;58875;51.996;4.504;2024-01-27T01:24:38;8.11;;;5.41;;
71172;SDS011;58875;51.996;4.504;2024-01-27T01:27:04;8.46;;;5.67;;
71172;SDS011;58875;51.996;4.504;2024-01-27T01:29:33;8.28;;;5.54;;
71172;SDS011;58875;51.996;4.504;2024-01-27T01:31:58;8.30;;;5.60;;
71172;SDS011;58875;51.996;4.504;2024-01-27T01:34:24;7.71;;;5.22;;
71172;SDS011;58875;51.996;4.504;2024-01-27T01:36:49;7.52;;;5.18;;
71172;SDS011;58875;51.996;4.504;2024-01-27T01:39:15;8.28;;;5.66;;
71172;SDS011;58875;51.996;4.504;2024-01-27T01:41:41;8.58;;;5.88;;
71172;SDS011;58875;51.996;4.504;2024-01-27T01:44:06;9.17;;;6.27;;
71172;SDS011;58875;51.996;4.504;2024-01-27T01:46:32;8.11;;;5.75;;
71172;SDS011;58875;51.996;4.504;2024-01-27T01:48:58;7.65;;;5.47;;
71172;SDS011;58875;51.996;4.504;2024-01-27T01:51:25;6.89;;;5.03;;
71172;SDS011;58875;51.996;4.504;2024-01-27T01:53:52;7.79;;;5.64;;
71172;SDS011;58875;51.996;4.504;2024-01-27T01:56:25;7.75;;;5.72;;
71172;SDS011;58875;51.996;4.504;2024-01-27T01:58:50;6.33;;;4.90;;
71172;SDS011;58875;51.996;4.504;2024-01-27T02:01:19;6.55;;;5.04;;
71172;SDS011;58875;51.996;4.504;2024-01-27T02:03:55;6.92;;;5.30;;
71172;SDS011;58875;51.996;4.504;2024-01-27T02:06:22;7.13;;;5.32;;
71172;SDS011;58875;51.996;4.504;2024-01-27T02:08:48;7.03;;;5.27;;
71172;SDS011;58875;51.996;4.504;2024-01-27T02:11:13;7.06;;;5.31;;
71172;SDS011;58875;51.996;4.504;2024-01-27T02:13:39;7.63;;;5.76;;
71172;SDS011;58875;51.996;4.504;2024-01-27T02:16:05;7.37;;;5.54;;
71172;SDS011;58875;51.996;4.504;2024-01-27T02:18:30;7.06;;;5.42;;
71172;SDS011;58875;51.996;4.504;2024-01-27T02:20:56;7.02;;;5.45;;
71172;SDS011;58875;51.996;4.504;2024-01-27T02:23:22;7.18;;;5.49;;
71172;SDS011;58875;51.996;4.504;2024-01-27T02:25:50;6.55;;;4.98;;
71172;SDS011;58875;51.996;4.504;2024-01-27T02:28:16;6.96;;;5.34;;
71172;SDS011;58875;51.996;4.504;2024-01-27T02:30:42;7.29;;;5.53;;
71172;SDS011;58875;51.996;4.504;2024-01-27T02:33:08;6.97;;;5.33;;
71172;SDS011;58875;51.996;4.504;2024-01-27T02:35:34;7.06;;;5.37;;
71172;SDS011;58875;51.996;4.504;2024-01-27T02:37:59;6.55;;;5.14;;
71172;SDS011;58875;51.996;4.504;2024-01-27T02:40:25;7.38;;;5.66;;
71172;SDS011;58875;51.996;4.504;2024-01-27T02:42:50;7.53;;;5.69;;
71172;SDS011;58875;51.996;4.504;2024-01-27T02:45:16;7.76;;;5.92;;
71172;SDS011;58875;51.996;4.504;2024-01-27T02:47:42;6.96;;;5.34;;
71172;SDS011;58875;51.996;4.504;2024-01-27T02:50:07;7.34;;;5.61;;
71172;SDS011;58875;51.996;4.504;2024-01-27T02:52:33;7.79;;;5.97;;
71172;SDS011;58875;51.996;4.504;2024-01-27T02:54:59;6.52;;;5.17;;
71172;SDS011;58875;51.996;4.504;2024-01-27T02:57:25;6.83;;;5.37;;
71172;SDS011;58875;51.996;4.504;2024-01-27T02:59:51;6.48;;;5.17;;
71172;SDS011;58875;51.996;4.504;2024-01-27T03:02:16;7.14;;;5.55;;
71172;SDS011;58875;51.996;4.504;2024-01-27T03:04:42;7.57;;;5.74;;
71172;SDS011;58875;51.996;4.504;2024-01-27T03:07:07;7.37;;;5.69;;
71172;SDS011;58875;51.996;4.504;2024-01-27T03:09:33;6.44;;;5.19;;
71172;SDS011;58875;51.996;4.504;2024-01-27T03:11:58;6.50;;;5.33;;
71172;SDS011;58875;51.996;4.504;2024-01-27T03:14:24;6.65;;;5.58;;
71172;SDS011;58875;51.996;4.504;2024-01-27T03:16:50;7.38;;;6.17;;
71172;SDS011;58875;51.996;4.504;2024-01-27T03:19:16;7.37;;;6.38;;
71172;SDS011;58875;51.996;4.504;2024-01-27T03:21:41;8.13;;;7.08;;
71172;SDS011;58875;51.996;4.504;2024-01-27T03:24:07;7.90;;;6.89;;
71172;SDS011;58875;51.996;4.504;2024-01-27T03:26:33;8.15;;;7.24;;
71172;SDS011;58875;51.996;4.504;2024-01-27T03:28:59;7.76;;;7.34;;
71172;SDS011;58875;51.996;4.504;2024-01-27T03:31:31;8.41;;;8.01;;
71172;SDS011;58875;51.996;4.504;2024-01-27T03:33:59;8.59;;;8.12;;
71172;SDS011;58875;51.996;4.504;2024-01-27T03:36:26;8.34;;;8.04;;
71172;SDS011;58875;51.996;4.504;2024-01-27T03:38:51;8.82;;;8.61;;
71172;SDS011;58875;51.996;4.504;2024-01-27T03:41:17;8.84;;;8.59;;
71172;SDS011;58875;51.996;4.504;2024-01-27T03:43:42;9.50;;;9.32;;
71172;SDS011;58875;51.996;4.504;2024-01-27T03:46:08;9.86;;;9.72;;
71172;SDS011;58875;51.996;4.504;2024-01-27T03:48:33;10.50;;;10.46;;
71172;SDS011;58875;51.996;4.504;2024-01-27T03:51:02;10.84;;;10.82;;
71172;SDS011;58875;51.996;4.504;2024-01-27T03:53:28;11.13;;;11.11;;
71172;SDS011;58875;51.996;4.504;2024-01-27T03:55:54;10.98;;;10.98;;
71172;SDS011;58875;51.996;4.504;2024-01-27T03:58:23;11.33;;;11.27;;
71172;SDS011;58875;51.996;4.504;2024-01-27T04:00:49;11.52;;;11.47;;
71172;SDS011;58875;51.996;4.504;2024-01-27T04:03:15;11.64;;;11.58;;
71172;SDS011;58875;51.996;4.504;2024-01-27T04:05:40;11.54;;;11.50;;
71172;SDS011;58875;51.996;4.504;2024-01-27T04:08:06;11.16;;;11.16;;
71172;SDS011;58875;51.996;4.504;2024-01-27T04:10:31;11.74;;;11.74;;
71172;SDS011;58875;51.996;4.504;2024-01-27T04:12:57;12.45;;;12.45;;
71172;SDS011;58875;51.996;4.504;2024-01-27T04:15:23;12.32;;;12.32;;
71172;SDS011;58875;51.996;4.504;2024-01-27T04:17:48;11.72;;;11.72;;
71172;SDS011;58875;51.996;4.504;2024-01-27T04:20:14;11.86;;;11.86;;
71172;SDS011;58875;51.996;4.504;2024-01-27T04:22:39;12.67;;;12.58;;
71172;SDS011;58875;51.996;4.504;2024-01-27T04:25:05;12.24;;;12.23;;
71172;SDS011;58875;51.996;4.504;2024-01-27T04:27:31;12.20;;;12.19;;
71172;SDS011;58875;51.996;4.504;2024-01-27T04:30:02;12.59;;;12.55;;
71172;SDS011;58875;51.996;4.504;2024-01-27T04:32:28;12.40;;;12.30;;
71172;SDS011;58875;51.996;4.504;2024-01-27T04:34:53;12.60;;;12.49;;
71172;SDS011;58875;51.996;4.504;2024-01-27T04:37:19;12.86;;;12.84;;
71172;SDS011;58875;51.996;4.504;2024-01-27T04:39:45;13.67;;;13.66;;
71172;SDS011;58875;51.996;4.504;2024-01-27T04:42:10;13.09;;;13.09;;
71172;SDS011;58875;51.996;4.504;2024-01-27T04:44:39;12.84;;;12.83;;
71172;SDS011;58875;51.996;4.504;2024-01-27T04:47:05;13.02;;;13.01;;
71172;SDS011;58875;51.996;4.504;2024-01-27T04:49:31;12.90;;;12.89;;
71172;SDS011;58875;51.996;4.504;2024-01-27T04:51:56;13.12;;;13.04;;
71172;SDS011;58875;51.996;4.504;2024-01-27T04:54:22;13.21;;;13.18;;
71172;SDS011;58875;51.996;4.504;2024-01-27T04:56:47;12.98;;;12.96;;
71172;SDS011;58875;51.996;4.504;2024-01-27T04:59:13;13.25;;;13.24;;
71172;SDS011;58875;51.996;4.504;2024-01-27T05:01:38;13.53;;;13.53;;
71172;SDS011;58875;51.996;4.504;2024-01-27T05:04:04;13.23;;;13.22;;
71172;SDS011;58875;51.996;4.504;2024-01-27T05:06:30;13.19;;;13.15;;
71172;SDS011;58875;51.996;4.504;2024-01-27T05:08:55;13.61;;;13.60;;
71172;SDS011;58875;51.996;4.504;2024-01-27T05:11:31;13.00;;;13.00;;
71172;SDS011;58875;51.996;4.504;2024-01-27T05:14:00;12.96;;;12.96;;
71172;SDS011;58875;51.996;4.504;2024-01-27T05:16:27;13.28;;;13.28;;
71172;SDS011;58875;51.996;4.504;2024-01-27T05:18:53;12.85;;;12.85;;
71172;SDS011;58875;51.996;4.504;2024-01-27T05:21:18;12.81;;;12.79;;
71172;SDS011;58875;51.996;4.504;2024-01-27T05:23:44;13.09;;;13.07;;
71172;SDS011;58875;51.996;4.504;2024-01-27T05:26:10;13.11;;;13.11;;
71172;SDS011;58875;51.996;4.504;2024-01-27T05:28:38;12.95;;;12.95;;
71172;SDS011;58875;51.996;4.504;2024-01-27T05:31:07;12.55;;;12.55;;
71172;SDS011;58875;51.996;4.504;2024-01-27T05:33:34;12.42;;;12.39;;
71172;SDS011;58875;51.996;4.504;2024-01-27T05:36:00;12.60;;;12.60;;
71172;SDS011;58875;51.996;4.504;2024-01-27T05:38:26;12.93;;;12.93;;
71172;SDS011;58875;51.996;4.504;2024-01-27T05:40:53;12.57;;;12.57;;
71172;SDS011;58875;51.996;4.504;2024-01-27T05:43:19;12.74;;;12.74;;
71172;SDS011;58875;51.996;4.504;2024-01-27T05:45:45;13.00;;;13.00;;
71172;SDS011;58875;51.996;4.504;2024-01-27T05:48:11;12.42;;;12.42;;
71172;SDS011;58875;51.996;4.504;2024-01-27T05:50:36;13.42;;;13.42;;
71172;SDS011;58875;51.996;4.504;2024-01-27T05:53:02;12.83;;;12.83;;
71172;SDS011;58875;51.996;4.504;2024-01-27T05:55:28;12.91;;;12.90;;
71172;SDS011;58875;51.996;4.504;2024-01-27T05:57:53;12.93;;;12.92;;
71172;SDS011;58875;51.996;4.504;2024-01-27T06:00:21;12.97;;;12.97;;
71172;SDS011;58875;51.996;4.504;2024-01-27T06:02:47;13.25;;;13.25;;
71172;SDS011;58875;51.996;4.504;2024-01-27T06:05:13;12.88;;;12.88;;
71172;SDS011;58875;51.996;4.504;2024-01-27T06:07:38;13.04;;;13.04;;
71172;SDS011;58875;51.996;4.504;2024-01-27T06:10:07;13.47;;;13.47;;
71172;SDS011;58875;51.996;4.504;2024-01-27T06:12:33;13.53;;;13.53;;
71172;SDS011;58875;51.996;4.504;2024-01-27T06:14:59;13.17;;;13.17;;
71172;SDS011;58875;51.996;4.504;2024-01-27T06:17:25;12.80;;;12.79;;
71172;SDS011;58875;51.996;4.504;2024-01-27T06:19:51;12.96;;;12.96;;
71172;SDS011;58875;51.996;4.504;2024-01-27T06:22:16;13.74;;;13.74;;
71172;SDS011;58875;51.996;4.504;2024-01-27T06:24:45;14.03;;;14.03;;
71172;SDS011;58875;51.996;4.504;2024-01-27T06:27:10;13.34;;;13.33;;
71172;SDS011;58875;51.996;4.504;2024-01-27T06:29:36;13.59;;;13.59;;
71172;SDS011;58875;51.996;4.504;2024-01-27T06:32:02;13.87;;;13.87;;
71172;SDS011;58875;51.996;4.504;2024-01-27T06:34:28;13.31;;;13.31;;
71172;SDS011;58875;51.996;4.504;2024-01-27T06:36:53;13.43;;;13.43;;
71172;SDS011;58875;51.996;4.504;2024-01-27T06:39:19;14.07;;;14.07;;
71172;SDS011;58875;51.996;4.504;2024-01-27T06:41:46;13.90;;;13.90;;
71172;SDS011;58875;51.996;4.504;2024-01-27T06:44:12;13.72;;;13.72;;
71172;SDS011;58875;51.996;4.504;2024-01-27T06:46:38;14.06;;;14.06;;
71172;SDS011;58875;51.996;4.504;2024-01-27T06:49:03;14.30;;;14.30;;
71172;SDS011;58875;51.996;4.504;2024-01-27T06:51:29;15.34;;;15.34;;
71172;SDS011;58875;51.996;4.504;2024-01-27T06:53:54;14.97;;;14.96;;
71172;SDS011;58875;51.996;4.504;2024-01-27T06:56:20;14.88;;;14.88;;
71172;SDS011;58875;51.996;4.504;2024-01-27T06:58:45;15.01;;;15.01;;
71172;SDS011;58875;51.996;4.504;2024-01-27T07:01:11;14.79;;;14.79;;
71172;SDS011;58875;51.996;4.504;2024-01-27T07:03:36;15.46;;;15.46;;
71172;SDS011;58875;51.996;4.504;2024-01-27T07:06:04;15.94;;;15.94;;
71172;SDS011;58875;51.996;4.504;2024-01-27T07:08:30;16.27;;;16.27;;
71172;SDS011;58875;51.996;4.504;2024-01-27T07:10:57;16.37;;;16.37;;
71172;SDS011;58875;51.996;4.504;2024-01-27T07:13:23;16.74;;;16.74;;
71172;SDS011;58875;51.996;4.504;2024-01-27T07:15:49;16.61;;;16.61;;
71172;SDS011;58875;51.996;4.504;2024-01-27T07:18:14;16.49;;;16.49;;
71172;SDS011;58875;51.996;4.504;2024-01-27T07:20:40;16.78;;;16.78;;
71172;SDS011;58875;51.996;4.504;2024-01-27T07:23:06;16.69;;;16.69;;
71172;SDS011;58875;51.996;4.504;2024-01-27T07:25:31;16.55;;;16.55;;
71172;SDS011;58875;51.996;4.504;2024-01-27T07:27:57;16.36;;;16.36;;
71172;SDS011;58875;51.996;4.504;2024-01-27T07:30:22;16.38;;;16.38;;
71172;SDS011;58875;51.996;4.504;2024-01-27T07:32:48;16.30;;;16.30;;
71172;SDS011;58875;51.996;4.504;2024-01-27T07:35:13;16.31;;;16.31;;
71172;SDS011;58875;51.996;4.504;2024-01-27T07:37:39;16.67;;;16.67;;
71172;SDS011;58875;51.996;4.504;2024-01-27T07:40:05;16.21;;;16.21;;
71172;SDS011;58875;51.996;4.504;2024-01-27T07:42:31;16.24;;;16.24;;
71172;SDS011;58875;51.996;4.504;2024-01-27T07:44:57;15.67;;;15.67;;
71172;SDS011;58875;51.996;4.504;2024-01-27T07:47:22;16.07;;;16.07;;
71172;SDS011;58875;51.996;4.504;2024-01-27T07:49:48;16.14;;;16.14;;
71172;SDS011;58875;51.996;4.504;2024-01-27T07:52:14;16.03;;;16.03;;
71172;SDS011;58875;51.996;4.504;2024-01-27T07:54:39;15.77;;;15.77;;
71172;SDS011;58875;51.996;4.504;2024-01-27T07:57:05;15.95;;;15.95;;
71172;SDS011;58875;51.996;4.504;2024-01-27T07:59:31;15.54;;;15.54;;
71172;SDS011;58875;51.996;4.504;2024-01-27T08:01:58;15.76;;;15.76;;
71172;SDS011;58875;51.996;4.504;2024-01-27T08:04:24;16.07;;;16.07;;
71172;SDS011;58875;51.996;4.504;2024-01-27T08:06:50;16.11;;;16.11;;
71172;SDS011;58875;51.996;4.504;2024-01-27T08:09:17;16.13;;;16.13;;
71172;SDS011;58875;51.996;4.504;2024-01-27T08:11:43;16.13;;;16.13;;
71172;SDS011;58875;51.996;4.504;2024-01-27T08:14:09;15.53;;;15.53;;
71172;SDS011;58875;51.996;4.504;2024-01-27T08:16:35;15.48;;;15.48;;
71172;SDS011;58875;51.996;4.504;2024-01-27T08:19:00;15.87;;;15.87;;
71172;SDS011;58875;51.996;4.504;2024-01-27T08:21:26;16.04;;;16.04;;
71172;SDS011;58875;51.996;4.504;2024-01-27T08:23:52;15.97;;;15.97;;
71172;SDS011;58875;51.996;4.504;2024-01-27T08:26:18;15.53;;;15.53;;
71172;SDS011;58875;51.996;4.504;2024-01-27T08:28:46;15.63;;;15.63;;
71172;SDS011;58875;51.996;4.504;2024-01-27T08:31:12;15.94;;;15.94;;
71172;SDS011;58875;51.996;4.504;2024-01-27T08:33:38;16.20;;;16.20;;
71172;SDS011;58875;51.996;4.504;2024-01-27T08:36:03;16.32;;;16.32;;
71172;SDS011;58875;51.996;4.504;2024-01-27T08:38:29;15.92;;;15.92;;
71172;SDS011;58875;51.996;4.504;2024-01-27T08:40:54;15.65;;;15.65;;
71172;SDS011;58875;51.996;4.504;2024-01-27T08:43:20;15.92;;;15.92;;
71172;SDS011;58875;51.996;4.504;2024-01-27T08:45:45;16.23;;;16.23;;
71172;SDS011;58875;51.996;4.504;2024-01-27T08:48:11;16.61;;;16.61;;
71172;SDS011;58875;51.996;4.504;2024-01-27T08:50:37;16.48;;;16.48;;
71172;SDS011;58875;51.996;4.504;2024-01-27T08:53:03;16.15;;;16.15;;
71172;SDS011;58875;51.996;4.504;2024-01-27T08:55:29;16.08;;;16.08;;
71172;SDS011;58875;51.996;4.504;2024-01-27T08:57:55;16.11;;;16.11;;
71172;SDS011;58875;51.996;4.504;2024-01-27T09:00:21;16.16;;;16.16;;
71172;SDS011;58875;51.996;4.504;2024-01-27T09:02:47;16.11;;;16.11;;
71172;SDS011;58875;51.996;4.504;2024-01-27T09:05:12;16.39;;;16.39;;
71172;SDS011;58875;51.996;4.504;2024-01-27T09:07:38;15.93;;;15.93;;
71172;SDS011;58875;51.996;4.504;2024-01-27T09:10:04;15.87;;;15.87;;
71172;SDS011;58875;51.996;4.504;2024-01-27T09:12:30;15.58;;;15.58;;
71172;SDS011;58875;51.996;4.504;2024-01-27T09:14:55;15.74;;;15.74;;
71172;SDS011;58875;51.996;4.504;2024-01-27T09:17:21;15.37;;;15.37;;
71172;SDS011;58875;51.996;4.504;2024-01-27T09:19:46;15.58;;;15.58;;
71172;SDS011;58875;51.996;4.504;2024-01-27T09:22:12;15.39;;;15.39;;
71172;SDS011;58875;51.996;4.504;2024-01-27T09:24:38;15.17;;;15.17;;
71172;SDS011;58875;51.996;4.504;2024-01-27T09:27:05;15.44;;;15.44;;
71172;SDS011;58875;51.996;4.504;2024-01-27T09:29:30;15.74;;;15.74;;
71172;SDS011;58875;51.996;4.504;2024-01-27T09:31:56;15.74;;;15.74;;
71172;SDS011;58875;51.996;4.504;2024-01-27T09:34:21;15.79;;;15.79;;
71172;SDS011;58875;51.996;4.504;2024-01-27T09:36:47;15.49;;;15.49;;
71172;SDS011;58875;51.996;4.504;2024-01-27T09:39:12;15.60;;;15.60;;
71172;SDS011;58875;51.996;4.504;2024-01-27T09:41:38;15.81;;;15.81;;
71172;SDS011;58875;51.996;4.504;2024-01-27T09:44:04;15.32;;;15.32;;
71172;SDS011;58875;51.996;4.504;2024-01-27T09:46:30;15.78;;;15.78;;
71172;SDS011;58875;51.996;4.504;2024-01-27T09:48:57;15.43;;;15.43;;
71172;SDS011;58875;51.996;4.504;2024-01-27T09:51:24;15.71;;;15.71;;
71172;SDS011;58875;51.996;4.504;2024-01-27T09:53:50;15.48;;;15.48;;
71172;SDS011;58875;51.996;4.504;2024-01-27T09:56:17;15.09;;;15.09;;
71172;SDS011;58875;51.996;4.504;2024-01-27T09:58:46;14.86;;;14.86;;
71172;SDS011;58875;51.996;4.504;2024-01-27T10:01:13;14.83;;;14.83;;
71172;SDS011;58875;51.996;4.504;2024-01-27T10:03:43;15.51;;;15.51;;
71172;SDS011;58875;51.996;4.504;2024-01-27T10:06:11;15.15;;;15.15;;
71172;SDS011;58875;51.996;4.504;2024-01-27T10:08:39;14.88;;;14.88;;
71172;SDS011;58875;51.996;4.504;2024-01-27T10:11:08;14.87;;;14.87;;
71172;SDS011;58875;51.996;4.504;2024-01-27T10:13:39;14.11;;;14.11;;
71172;SDS011;58875;51.996;4.504;2024-01-27T10:16:06;13.95;;;13.95;;
71172;SDS011;58875;51.996;4.504;2024-01-27T10:18:37;14.04;;;14.04;;
71172;SDS011;58875;51.996;4.504;2024-01-27T10:21:12;13.87;;;13.87;;
71172;SDS011;58875;51.996;4.504;2024-01-27T10:23:39;13.39;;;13.39;;
71172;SDS011;58875;51.996;4.504;2024-01-27T10:26:05;13.19;;;13.19;;
71172;SDS011;58875;51.996;4.504;2024-01-27T10:28:33;12.97;;;12.97;;
71172;SDS011;58875;51.996;4.504;2024-01-27T10:31:11;12.84;;;12.84;;
71172;SDS011;58875;51.996;4.504;2024-01-27T10:33:38;12.14;;;12.09;;
71172;SDS011;58875;51.996;4.504;2024-01-27T10:36:04;12.09;;;12.07;;
71172;SDS011;58875;51.996;4.504;2024-01-27T10:38:37;12.16;;;12.16;;
71172;SDS011;58875;51.996;4.504;2024-01-27T10:41:06;11.31;;;11.31;;
71172;SDS011;58875;51.996;4.504;2024-01-27T10:43:35;11.22;;;11.20;;
71172;SDS011;58875;51.996;4.504;2024-01-27T10:46:05;11.04;;;11.04;;
71172;SDS011;58875;51.996;4.504;2024-01-27T10:48:33;10.18;;;10.15;;
71172;SDS011;58875;51.996;4.504;2024-01-27T10:51:08;10.20;;;10.20;;
71172;SDS011;58875;51.996;4.504;2024-01-27T10:53:35;9.92;;;9.92;;
71172;SDS011;58875;51.996;4.504;2024-01-27T10:56:05;10.11;;;10.11;;
71172;SDS011;58875;51.996;4.504;2024-01-27T10:58:34;9.75;;;9.74;;
71172;SDS011;58875;51.996;4.504;2024-01-27T11:01:10;10.09;;;9.99;;
71172;SDS011;58875;51.996;4.504;2024-01-27T11:03:38;10.13;;;10.12;;
71172;SDS011;58875;51.996;4.504;2024-01-27T11:06:05;10.00;;;9.99;;
71172;SDS011;58875;51.996;4.504;2024-01-27T11:08:31;10.60;;;10.43;;
71172;SDS011;58875;51.996;4.504;2024-01-27T11:11:02;10.27;;;10.25;;
71172;SDS011;58875;51.996;4.504;2024-01-27T11:13:32;10.23;;;10.18;;
71172;SDS011;58875;51.996;4.504;2024-01-27T11:15:59;10.75;;;10.75;;
71172;SDS011;58875;51.996;4.504;2024-01-27T11:18:25;10.70;;;10.70;;
71172;SDS011;58875;51.996;4.504;2024-01-27T11:20:54;10.57;;;10.51;;
71172;SDS011;58875;51.996;4.504;2024-01-27T11:23:30;10.97;;;10.93;;
71172;SDS011;58875;51.996;4.504;2024-01-27T11:26:07;11.00;;;10.99;;
71172;SDS011;58875;51.996;4.504;2024-01-27T11:28:34;10.82;;;10.82;;
71172;SDS011;58875;51.996;4.504;2024-01-27T11:31:04;10.59;;;10.59;;
71172;SDS011;58875;51.996;4.504;2024-01-27T11:33:31;11.11;;;11.11;;
71172;SDS011;58875;51.996;4.504;2024-01-27T11:36:04;11.13;;;11.12;;
71172;SDS011;58875;51.996;4.504;2024-01-27T11:38:31;11.20;;;11.17;;
71172;SDS011;58875;51.996;4.504;2024-01-27T11:40:59;10.93;;;10.91;;
71172;SDS011;58875;51.996;4.504;2024-01-27T11:43:25;10.82;;;10.82;;
71172;SDS011;58875;51.996;4.504;2024-01-27T11:45:57;10.83;;;10.83;;
71172;SDS011;58875;51.996;4.504;2024-01-27T11:48:24;10.43;;;10.40;;
71172;SDS011;58875;51.996;4.504;2024-01-27T11:51:03;10.21;;;10.21;;
71172;SDS011;58875;51.996;4.504;2024-01-27T11:53:35;10.70;;;10.67;;
71172;SDS011;58875;51.996;4.504;2024-01-27T11:56:02;10.63;;;10.60;;
71172;SDS011;58875;51.996;4.504;2024-01-27T11:58:28;11.05;;;10.95;;
71172;SDS011;58875;51.996;4.504;2024-01-27T12:00:55;11.62;;;11.61;;
71172;SDS011;58875;51.996;4.504;2024-01-27T12:03:21;11.43;;;11.42;;
71172;SDS011;58875;51.996;4.504;2024-01-27T12:05:47;11.15;;;11.15;;
71172;SDS011;58875;51.996;4.504;2024-01-27T12:08:13;11.35;;;11.35;;
71172;SDS011;58875;51.996;4.504;2024-01-27T12:10:39;11.35;;;11.35;;
71172;SDS011;58875;51.996;4.504;2024-01-27T12:13:04;11.20;;;11.18;;
71172;SDS011;58875;51.996;4.504;2024-01-27T12:15:30;10.84;;;10.84;;
71172;SDS011;58875;51.996;4.504;2024-01-27T12:17:55;10.89;;;10.89;;
71172;SDS011;58875;51.996;4.504;2024-01-27T12:20:22;10.55;;;10.53;;
71172;SDS011;58875;51.996;4.504;2024-01-27T12:22:48;10.32;;;10.19;;
71172;SDS011;58875;51.996;4.504;2024-01-27T12:25:20;10.58;;;10.58;;
71172;SDS011;58875;51.996;4.504;2024-01-27T12:27:46;10.58;;;10.58;;
71172;SDS011;58875;51.996;4.504;2024-01-27T12:30:11;9.85;;;9.84;;
71172;SDS011;58875;51.996;4.504;2024-01-27T12:32:41;10.03;;;9.93;;
71172;SDS011;58875;51.996;4.504;2024-01-27T12:35:07;9.33;;;9.27;;
71172;SDS011;58875;51.996;4.504;2024-01-27T12:37:36;9.95;;;9.93;;
71172;SDS011;58875;51.996;4.504;2024-01-27T12:40:02;10.54;;;10.53;;
71172;SDS011;58875;51.996;4.504;2024-01-27T12:42:41;10.65;;;10.65;;
71172;SDS011;58875;51.996;4.504;2024-01-27T12:45:07;10.49;;;10.46;;
71172;SDS011;58875;51.996;4.504;2024-01-27T12:47:33;10.57;;;10.55;;
71172;SDS011;58875;51.996;4.504;2024-01-27T12:49:58;10.37;;;10.34;;
71172;SDS011;58875;51.996;4.504;2024-01-27T12:52:24;10.62;;;10.61;;
71172;SDS011;58875;51.996;4.504;2024-01-27T12:54:49;10.57;;;10.56;;
71172;SDS011;58875;51.996;4.504;2024-01-27T12:57:15;10.10;;;10.03;;
71172;SDS011;58875;51.996;4.504;2024-01-27T12:59:42;10.86;;;10.69;;
71172;SDS011;58875;51.996;4.504;2024-01-27T13:02:08;9.47;;;9.31;;
71172;SDS011;58875;51.996;4.504;2024-01-27T13:04:33;8.98;;;8.89;;
71172;SDS011;58875;51.996;4.504;2024-01-27T13:06:59;8.60;;;8.51;;
71172;SDS011;58875;51.996;4.504;2024-01-27T13:09:25;7.82;;;7.81;;
71172;SDS011;58875;51.996;4.504;2024-01-27T13:11:51;7.56;;;7.44;;
71172;SDS011;58875;51.996;4.504;2024-01-27T13:14:16;8.14;;;7.77;;
71172;SDS011;58875;51.996;4.504;2024-01-27T13:16:45;8.27;;;7.75;;
71172;SDS011;58875;51.996;4.504;2024-01-27T13:19:10;8.80;;;8.14;;
71172;SDS011;58875;51.996;4.504;2024-01-27T13:21:36;8.87;;;8.30;;
71172;SDS011;58875;51.996;4.504;2024-01-27T13:24:02;8.53;;;8.01;;
71172;SDS011;58875;51.996;4.504;2024-01-27T13:26:28;8.75;;;8.35;;
71172;SDS011;58875;51.996;4.504;2024-01-27T13:28:53;8.05;;;7.76;;
71172;SDS011;58875;51.996;4.504;2024-01-27T13:31:19;8.58;;;8.11;;
71172;SDS011;58875;51.996;4.504;2024-01-27T13:33:45;8.36;;;7.86;;
71172;SDS011;58875;51.996;4.504;2024-01-27T13:36:10;8.67;;;8.34;;
71172;SDS011;58875;51.996;4.504;2024-01-27T13:38:36;9.21;;;8.43;;
71172;SDS011;58875;51.996;4.504;2024-01-27T13:41:02;9.10;;;8.48;;
71172;SDS011;58875;51.996;4.504;2024-01-27T13:43:28;8.37;;;7.96;;
71172;SDS011;58875;51.996;4.504;2024-01-27T13:45:54;8.54;;;8.17;;
71172;SDS011;58875;51.996;4.504;2024-01-27T13:48:20;9.08;;;8.71;;
71172;SDS011;58875;51.996;4.504;2024-01-27T13:50:46;8.53;;;8.22;;
71172;SDS011;58875;51.996;4.504;2024-01-27T13:53:11;9.19;;;8.86;;
71172;SDS011;58875;51.996;4.504;2024-01-27T13:55:37;8.89;;;8.72;;
71172;SDS011;58875;51.996;4.504;2024-01-27T13:58:04;10.22;;;9.80;;
71172;SDS011;58875;51.996;4.504;2024-01-27T14:00:30;10.25;;;9.92;;
71172;SDS011;58875;51.996;4.504;2024-01-27T14:02:58;9.75;;;9.55;;
71172;SDS011;58875;51.996;4.504;2024-01-27T14:05:24;9.39;;;9.38;;
71172;SDS011;58875;51.996;4.504;2024-01-27T14:07:49;10.78;;;10.74;;
71172;SDS011;58875;51.996;4.504;2024-01-27T14:10:15;10.95;;;10.92;;
71172;SDS011;58875;51.996;4.504;2024-01-27T14:12:40;10.27;;;10.27;;
71172;SDS011;58875;51.996;4.504;2024-01-27T14:15:06;10.65;;;10.61;;
71172;SDS011;58875;51.996;4.504;2024-01-27T14:17:33;10.89;;;10.89;;
71172;SDS011;58875;51.996;4.504;2024-01-27T14:20:00;11.29;;;11.29;;
71172;SDS011;58875;51.996;4.504;2024-01-27T14:22:26;10.99;;;10.99;;
71172;SDS011;58875;51.996;4.504;2024-01-27T14:24:52;11.27;;;11.27;;
71172;SDS011;58875;51.996;4.504;2024-01-27T14:27:18;10.28;;;10.28;;